sensor_id;sensor_type;location;lat;lon;timestamp;P1;durP1;ratioP1;P2;durP2;ratioP2
60502;SDS011;51448;51.660;5.824;2022-08-19T00:00:06;24.60;;;22.20;;
60502;SDS011;51448;51.660;5.824;2022-08-19T00:02:36;24.15;;;21.75;;
60502;SDS011;51448;51.660;5.824;2022-08-19T00:05:16;23.52;;;21.23;;
60502;SDS011;51448;51.660;5.824;2022-08-19T00:07:46;21.17;;;19.08;;
60502;SDS011;51448;51.660;5.824;2022-08-19T00:10:14;23.48;;;21.17;;
60502;SDS011;51448;51.660;5.824;2022-08-19T00:12:43;22.80;;;20.65;;
60502;SDS011;51448;51.660;5.824;2022-08-19T00:15:14;24.02;;;21.73;;
60502;SDS011;51448;51.660;5.824;2022-08-19T00:17:45;23.50;;;20.88;;
60502;SDS011;51448;51.660;5.824;2022-08-19T00:20:15;26.70;;;23.92;;
60502;SDS011;51448;51.660;5.824;2022-08-19T00:22:47;21.25;;;19.15;;
60502;SDS011;51448;51.660;5.824;2022-08-19T00:25:15;22.73;;;19.30;;
60502;SDS011;51448;51.660;5.824;2022-08-19T00:27:43;21.30;;;19.08;;
60502;SDS011;51448;51.660;5.824;2022-08-19T00:30:11;23.75;;;21.27;;
60502;SDS011;51448;51.660;5.824;2022-08-19T00:32:39;21.85;;;19.55;;
60502;SDS011;51448;51.660;5.824;2022-08-19T00:35:07;24.05;;;21.67;;
60502;SDS011;51448;51.660;5.824;2022-08-19T00:37:37;21.63;;;19.48;;
60502;SDS011;51448;51.660;5.824;2022-08-19T00:40:10;24.02;;;21.83;;
60502;SDS011;51448;51.660;5.824;2022-08-19T00:42:40;23.08;;;20.85;;
60502;SDS011;51448;51.660;5.824;2022-08-19T00:45:10;24.15;;;21.23;;
60502;SDS011;51448;51.660;5.824;2022-08-19T00:47:44;23.83;;;20.55;;
60502;SDS011;51448;51.660;5.824;2022-08-19T00:50:14;23.00;;;20.75;;
60502;SDS011;51448;51.660;5.824;2022-08-19T00:52:46;23.27;;;21.08;;
60502;SDS011;51448;51.660;5.824;2022-08-19T00:55:19;22.98;;;20.67;;
60502;SDS011;51448;51.660;5.824;2022-08-19T00:57:52;22.98;;;20.67;;
60502;SDS011;51448;51.660;5.824;2022-08-19T01:00:28;22.77;;;19.33;;
60502;SDS011;51448;51.660;5.824;2022-08-19T01:02:57;21.85;;;19.02;;
60502;SDS011;51448;51.660;5.824;2022-08-19T01:05:26;24.50;;;22.10;;
60502;SDS011;51448;51.660;5.824;2022-08-19T01:07:56;23.73;;;21.52;;
60502;SDS011;51448;51.660;5.824;2022-08-19T01:13:02;21.85;;;19.75;;
60502;SDS011;51448;51.660;5.824;2022-08-19T01:15:33;24.60;;;22.08;;
60502;SDS011;51448;51.660;5.824;2022-08-19T01:18:12;25.67;;;23.20;;
60502;SDS011;51448;51.660;5.824;2022-08-19T01:20:43;28.27;;;25.42;;
60502;SDS011;51448;51.660;5.824;2022-08-19T01:23:12;26.13;;;23.42;;
60502;SDS011;51448;51.660;5.824;2022-08-19T01:28:20;27.98;;;25.35;;
60502;SDS011;51448;51.660;5.824;2022-08-19T01:31:00;31.23;;;28.30;;
60502;SDS011;51448;51.660;5.824;2022-08-19T01:33:34;28.65;;;25.95;;
60502;SDS011;51448;51.660;5.824;2022-08-19T01:36:06;30.10;;;27.30;;
60502;SDS011;51448;51.660;5.824;2022-08-19T01:38:41;30.65;;;27.65;;
60502;SDS011;51448;51.660;5.824;2022-08-19T01:41:11;29.52;;;26.80;;
60502;SDS011;51448;51.660;5.824;2022-08-19T01:43:39;29.85;;;26.83;;
60502;SDS011;51448;51.660;5.824;2022-08-19T01:46:27;29.08;;;26.23;;
60502;SDS011;51448;51.660;5.824;2022-08-19T01:48:55;30.77;;;27.80;;
60502;SDS011;51448;51.660;5.824;2022-08-19T01:51:23;31.23;;;28.23;;
60502;SDS011;51448;51.660;5.824;2022-08-19T01:53:51;29.13;;;26.30;;
60502;SDS011;51448;51.660;5.824;2022-08-19T01:56:20;28.52;;;25.58;;
60502;SDS011;51448;51.660;5.824;2022-08-19T01:59:00;28.23;;;25.40;;
60502;SDS011;51448;51.660;5.824;2022-08-19T02:01:32;29.55;;;26.67;;
60502;SDS011;51448;51.660;5.824;2022-08-19T02:04:01;28.60;;;25.83;;
60502;SDS011;51448;51.660;5.824;2022-08-19T02:06:29;27.75;;;24.98;;
60502;SDS011;51448;51.660;5.824;2022-08-19T02:08:57;28.20;;;25.35;;
60502;SDS011;51448;51.660;5.824;2022-08-19T02:11:26;28.80;;;26.08;;
60502;SDS011;51448;51.660;5.824;2022-08-19T02:13:59;31.77;;;28.77;;
60502;SDS011;51448;51.660;5.824;2022-08-19T02:16:29;31.48;;;28.50;;
60502;SDS011;51448;51.660;5.824;2022-08-19T02:18:58;29.55;;;26.65;;
60502;SDS011;51448;51.660;5.824;2022-08-19T02:21:28;30.45;;;27.63;;
60502;SDS011;51448;51.660;5.824;2022-08-19T02:23:57;31.15;;;28.25;;
60502;SDS011;51448;51.660;5.824;2022-08-19T02:26:25;31.33;;;28.30;;
60502;SDS011;51448;51.660;5.824;2022-08-19T02:28:54;30.40;;;27.52;;
60502;SDS011;51448;51.660;5.824;2022-08-19T02:31:24;30.67;;;27.67;;
60502;SDS011;51448;51.660;5.824;2022-08-19T02:33:53;32.40;;;29.10;;
60502;SDS011;51448;51.660;5.824;2022-08-19T02:36:23;31.35;;;28.27;;
60502;SDS011;51448;51.660;5.824;2022-08-19T02:38:52;31.90;;;28.60;;
60502;SDS011;51448;51.660;5.824;2022-08-19T02:41:23;29.23;;;26.33;;
60502;SDS011;51448;51.660;5.824;2022-08-19T02:43:59;30.45;;;27.55;;
60502;SDS011;51448;51.660;5.824;2022-08-19T02:46:51;29.98;;;27.02;;
60502;SDS011;51448;51.660;5.824;2022-08-19T02:49:18;30.63;;;27.83;;
60502;SDS011;51448;51.660;5.824;2022-08-19T02:51:47;32.03;;;28.92;;
60502;SDS011;51448;51.660;5.824;2022-08-19T02:54:14;30.83;;;27.83;;
60502;SDS011;51448;51.660;5.824;2022-08-19T02:56:42;30.55;;;27.63;;
60502;SDS011;51448;51.660;5.824;2022-08-19T02:59:11;31.38;;;28.27;;
60502;SDS011;51448;51.660;5.824;2022-08-19T03:01:40;30.30;;;27.40;;
60502;SDS011;51448;51.660;5.824;2022-08-19T03:04:10;34.00;;;30.60;;
60502;SDS011;51448;51.660;5.824;2022-08-19T03:06:40;29.10;;;26.20;;
60502;SDS011;51448;51.660;5.824;2022-08-19T03:09:12;29.45;;;26.48;;
60502;SDS011;51448;51.660;5.824;2022-08-19T03:11:41;27.27;;;24.63;;
60502;SDS011;51448;51.660;5.824;2022-08-19T03:14:08;28.42;;;25.42;;
60502;SDS011;51448;51.660;5.824;2022-08-19T03:16:48;29.90;;;26.90;;
60502;SDS011;51448;51.660;5.824;2022-08-19T03:19:19;27.75;;;25.05;;
60502;SDS011;51448;51.660;5.824;2022-08-19T03:21:48;32.15;;;28.92;;
60502;SDS011;51448;51.660;5.824;2022-08-19T03:24:17;34.53;;;31.27;;
60502;SDS011;51448;51.660;5.824;2022-08-19T03:26:47;32.10;;;28.88;;
60502;SDS011;51448;51.660;5.824;2022-08-19T03:29:18;36.50;;;32.85;;
60502;SDS011;51448;51.660;5.824;2022-08-19T03:31:57;39.22;;;35.22;;
60502;SDS011;51448;51.660;5.824;2022-08-19T03:34:31;38.92;;;35.03;;
60502;SDS011;51448;51.660;5.824;2022-08-19T03:37:05;41.70;;;37.60;;
60502;SDS011;51448;51.660;5.824;2022-08-19T03:39:37;38.33;;;34.63;;
60502;SDS011;51448;51.660;5.824;2022-08-19T03:42:07;36.42;;;32.83;;
60502;SDS011;51448;51.660;5.824;2022-08-19T03:44:55;35.45;;;31.92;;
60502;SDS011;51448;51.660;5.824;2022-08-19T03:47:23;35.75;;;32.30;;
60502;SDS011;51448;51.660;5.824;2022-08-19T03:49:50;35.70;;;32.30;;
60502;SDS011;51448;51.660;5.824;2022-08-19T03:52:18;34.67;;;31.30;;
60502;SDS011;51448;51.660;5.824;2022-08-19T03:54:46;32.65;;;29.58;;
60502;SDS011;51448;51.660;5.824;2022-08-19T03:57:13;34.50;;;31.10;;
60502;SDS011;51448;51.660;5.824;2022-08-19T03:59:41;34.08;;;30.65;;
60502;SDS011;51448;51.660;5.824;2022-08-19T04:02:09;36.80;;;33.28;;
60502;SDS011;51448;51.660;5.824;2022-08-19T04:04:40;33.05;;;29.88;;
60502;SDS011;51448;51.660;5.824;2022-08-19T04:07:11;31.55;;;28.48;;
60502;SDS011;51448;51.660;5.824;2022-08-19T04:09:48;30.98;;;27.88;;
60502;SDS011;51448;51.660;5.824;2022-08-19T04:12:17;31.20;;;28.25;;
60502;SDS011;51448;51.660;5.824;2022-08-19T04:14:46;32.00;;;28.90;;
60502;SDS011;51448;51.660;5.824;2022-08-19T04:17:14;31.45;;;28.35;;
60502;SDS011;51448;51.660;5.824;2022-08-19T04:19:42;30.40;;;27.63;;
60502;SDS011;51448;51.660;5.824;2022-08-19T04:22:09;33.08;;;29.77;;
60502;SDS011;51448;51.660;5.824;2022-08-19T04:24:38;30.80;;;27.80;;
60502;SDS011;51448;51.660;5.824;2022-08-19T04:27:06;33.78;;;30.27;;
60502;SDS011;51448;51.660;5.824;2022-08-19T04:29:33;34.40;;;30.90;;
60502;SDS011;51448;51.660;5.824;2022-08-19T04:32:02;37.75;;;33.58;;
60502;SDS011;51448;51.660;5.824;2022-08-19T04:34:35;39.67;;;33.67;;
60502;SDS011;51448;51.660;5.824;2022-08-19T04:37:25;34.80;;;31.13;;
60502;SDS011;51448;51.660;5.824;2022-08-19T04:40:02;34.38;;;30.48;;
60502;SDS011;51448;51.660;5.824;2022-08-19T04:42:51;36.78;;;32.80;;
60502;SDS011;51448;51.660;5.824;2022-08-19T04:45:19;36.05;;;32.00;;
60502;SDS011;51448;51.660;5.824;2022-08-19T04:47:49;41.90;;;36.72;;
60502;SDS011;51448;51.660;5.824;2022-08-19T04:50:25;44.70;;;35.53;;
60502;SDS011;51448;51.660;5.824;2022-08-19T04:52:53;46.35;;;37.67;;
60502;SDS011;51448;51.660;5.824;2022-08-19T04:55:23;42.97;;;34.17;;
60502;SDS011;51448;51.660;5.824;2022-08-19T04:57:53;41.65;;;33.55;;
60502;SDS011;51448;51.660;5.824;2022-08-19T05:00:21;47.35;;;38.17;;
60502;SDS011;51448;51.660;5.824;2022-08-19T05:02:50;50.00;;;38.33;;
60502;SDS011;51448;51.660;5.824;2022-08-19T05:05:18;42.88;;;35.17;;
60502;SDS011;51448;51.660;5.824;2022-08-19T05:07:46;40.08;;;35.15;;
60502;SDS011;51448;51.660;5.824;2022-08-19T05:10:14;46.20;;;37.22;;
60502;SDS011;51448;51.660;5.824;2022-08-19T05:12:42;40.45;;;34.92;;
60502;SDS011;51448;51.660;5.824;2022-08-19T05:15:10;45.20;;;36.58;;
60502;SDS011;51448;51.660;5.824;2022-08-19T05:17:38;39.22;;;33.85;;
60502;SDS011;51448;51.660;5.824;2022-08-19T05:20:25;48.33;;;36.10;;
60502;SDS011;51448;51.660;5.824;2022-08-19T05:23:11;44.88;;;35.55;;
60502;SDS011;51448;51.660;5.824;2022-08-19T05:25:49;43.08;;;36.58;;
60502;SDS011;51448;51.660;5.824;2022-08-19T05:28:19;44.95;;;37.75;;
60502;SDS011;51448;51.660;5.824;2022-08-19T05:30:47;46.63;;;37.20;;
60502;SDS011;51448;51.660;5.824;2022-08-19T05:33:17;45.10;;;37.33;;
60502;SDS011;51448;51.660;5.824;2022-08-19T05:35:45;47.97;;;37.97;;
60502;SDS011;51448;51.660;5.824;2022-08-19T05:38:13;42.45;;;36.85;;
60502;SDS011;51448;51.660;5.824;2022-08-19T05:40:40;47.05;;;38.85;;
60502;SDS011;51448;51.660;5.824;2022-08-19T05:43:09;44.60;;;39.30;;
60502;SDS011;51448;51.660;5.824;2022-08-19T05:45:39;43.22;;;38.50;;
60502;SDS011;51448;51.660;5.824;2022-08-19T05:50:39;47.58;;;39.58;;
60502;SDS011;51448;51.660;5.824;2022-08-19T05:53:08;44.97;;;39.10;;
60502;SDS011;51448;51.660;5.824;2022-08-19T05:55:36;45.38;;;39.53;;
60502;SDS011;51448;51.660;5.824;2022-08-19T05:58:05;50.15;;;41.15;;
60502;SDS011;51448;51.660;5.824;2022-08-19T06:00:35;46.88;;;39.80;;
60502;SDS011;51448;51.660;5.824;2022-08-19T06:03:04;51.58;;;41.65;;
60502;SDS011;51448;51.660;5.824;2022-08-19T06:05:40;51.63;;;42.20;;
60502;SDS011;51448;51.660;5.824;2022-08-19T06:08:18;57.97;;;44.63;;
60502;SDS011;51448;51.660;5.824;2022-08-19T06:11:14;60.13;;;46.08;;
60502;SDS011;51448;51.660;5.824;2022-08-19T06:13:50;68.72;;;51.90;;
60502;SDS011;51448;51.660;5.824;2022-08-19T06:16:26;65.75;;;50.72;;
60502;SDS011;51448;51.660;5.824;2022-08-19T06:18:59;64.95;;;50.60;;
60502;SDS011;51448;51.660;5.824;2022-08-19T06:21:29;66.53;;;51.97;;
60502;SDS011;51448;51.660;5.824;2022-08-19T06:23:58;66.78;;;52.75;;
60502;SDS011;51448;51.660;5.824;2022-08-19T06:26:26;67.00;;;49.08;;
60502;SDS011;51448;51.660;5.824;2022-08-19T06:28:54;68.70;;;53.42;;
60502;SDS011;51448;51.660;5.824;2022-08-19T06:31:26;67.10;;;51.35;;
60502;SDS011;51448;51.660;5.824;2022-08-19T06:33:55;68.13;;;53.30;;
60502;SDS011;51448;51.660;5.824;2022-08-19T06:36:24;67.32;;;51.60;;
60502;SDS011;51448;51.660;5.824;2022-08-19T06:39:06;67.30;;;51.17;;
60502;SDS011;51448;51.660;5.824;2022-08-19T06:41:42;67.43;;;47.50;;
60502;SDS011;51448;51.660;5.824;2022-08-19T06:44:21;60.50;;;50.05;;
60502;SDS011;51448;51.660;5.824;2022-08-19T06:46:53;61.83;;;48.60;;
60502;SDS011;51448;51.660;5.824;2022-08-19T06:49:23;62.28;;;47.25;;
60502;SDS011;51448;51.660;5.824;2022-08-19T06:51:52;57.35;;;46.50;;
60502;SDS011;51448;51.660;5.824;2022-08-19T06:54:20;59.00;;;48.28;;
60502;SDS011;51448;51.660;5.824;2022-08-19T06:56:49;58.50;;;48.42;;
60502;SDS011;51448;51.660;5.824;2022-08-19T06:59:18;54.47;;;43.92;;
60502;SDS011;51448;51.660;5.824;2022-08-19T07:01:50;53.53;;;44.60;;
60502;SDS011;51448;51.660;5.824;2022-08-19T07:04:25;52.88;;;43.97;;
60502;SDS011;51448;51.660;5.824;2022-08-19T07:07:04;50.90;;;44.38;;
60502;SDS011;51448;51.660;5.824;2022-08-19T07:09:47;52.92;;;44.40;;
60502;SDS011;51448;51.660;5.824;2022-08-19T07:12:29;49.05;;;40.80;;
60502;SDS011;51448;51.660;5.824;2022-08-19T07:15:04;49.42;;;39.65;;
60502;SDS011;51448;51.660;5.824;2022-08-19T07:17:35;51.15;;;42.55;;
60502;SDS011;51448;51.660;5.824;2022-08-19T07:20:08;48.75;;;43.00;;
60502;SDS011;51448;51.660;5.824;2022-08-19T07:22:37;52.35;;;41.60;;
60502;SDS011;51448;51.660;5.824;2022-08-19T07:25:07;51.80;;;41.13;;
60502;SDS011;51448;51.660;5.824;2022-08-19T07:27:36;48.42;;;41.03;;
60502;SDS011;51448;51.660;5.824;2022-08-19T07:30:08;50.38;;;40.55;;
60502;SDS011;51448;51.660;5.824;2022-08-19T07:32:40;47.30;;;38.42;;
60502;SDS011;51448;51.660;5.824;2022-08-19T07:35:09;50.60;;;38.88;;
60502;SDS011;51448;51.660;5.824;2022-08-19T07:37:37;46.67;;;37.75;;
60502;SDS011;51448;51.660;5.824;2022-08-19T07:40:06;50.10;;;37.08;;
60502;SDS011;51448;51.660;5.824;2022-08-19T07:42:35;42.40;;;35.53;;
60502;SDS011;51448;51.660;5.824;2022-08-19T07:45:02;43.17;;;36.78;;
60502;SDS011;51448;51.660;5.824;2022-08-19T07:47:31;45.55;;;36.15;;
60502;SDS011;51448;51.660;5.824;2022-08-19T07:50:17;46.83;;;36.00;;
60502;SDS011;51448;51.660;5.824;2022-08-19T07:52:47;47.03;;;38.25;;
60502;SDS011;51448;51.660;5.824;2022-08-19T07:55:18;43.08;;;36.63;;
60502;SDS011;51448;51.660;5.824;2022-08-19T07:58:10;41.72;;;34.35;;
60502;SDS011;51448;51.660;5.824;2022-08-19T08:00:43;39.45;;;34.60;;
60502;SDS011;51448;51.660;5.824;2022-08-19T08:03:13;42.97;;;35.58;;
60502;SDS011;51448;51.660;5.824;2022-08-19T08:05:45;45.88;;;35.60;;
60502;SDS011;51448;51.660;5.824;2022-08-19T08:08:32;45.03;;;36.55;;
60502;SDS011;51448;51.660;5.824;2022-08-19T08:11:18;44.63;;;37.88;;
60502;SDS011;51448;51.660;5.824;2022-08-19T08:13:50;46.85;;;34.78;;
60502;SDS011;51448;51.660;5.824;2022-08-19T08:16:28;42.55;;;33.75;;
60502;SDS011;51448;51.660;5.824;2022-08-19T08:18:58;45.85;;;32.85;;
60502;SDS011;51448;51.660;5.824;2022-08-19T08:21:27;42.55;;;35.95;;
60502;SDS011;51448;51.660;5.824;2022-08-19T08:23:55;42.53;;;35.92;;
60502;SDS011;51448;51.660;5.824;2022-08-19T08:26:23;43.28;;;34.95;;
60502;SDS011;51448;51.660;5.824;2022-08-19T08:28:52;46.63;;;34.03;;
60502;SDS011;51448;51.660;5.824;2022-08-19T08:31:20;43.67;;;33.38;;
60502;SDS011;51448;51.660;5.824;2022-08-19T08:33:48;33.75;;;28.75;;
60502;SDS011;51448;51.660;5.824;2022-08-19T08:36:16;35.83;;;30.35;;
60502;SDS011;51448;51.660;5.824;2022-08-19T08:38:44;36.80;;;30.02;;
60502;SDS011;51448;51.660;5.824;2022-08-19T08:44:26;31.95;;;26.73;;
60502;SDS011;51448;51.660;5.824;2022-08-19T08:47:04;32.38;;;27.58;;
60502;SDS011;51448;51.660;5.824;2022-08-19T08:55:00;30.35;;;26.15;;
60502;SDS011;51448;51.660;5.824;2022-08-19T08:57:49;29.95;;;25.42;;
60502;SDS011;51448;51.660;5.824;2022-08-19T09:03:20;26.75;;;23.63;;
60502;SDS011;51448;51.660;5.824;2022-08-19T09:11:12;24.95;;;21.55;;
60502;SDS011;51448;51.660;5.824;2022-08-19T09:14:18;24.90;;;21.90;;
60502;SDS011;51448;51.660;5.824;2022-08-19T09:17:18;26.75;;;23.27;;
60502;SDS011;51448;51.660;5.824;2022-08-19T09:22:36;24.98;;;22.27;;
60502;SDS011;51448;51.660;5.824;2022-08-19T09:25:07;26.40;;;23.55;;
60502;SDS011;51448;51.660;5.824;2022-08-19T09:27:37;27.13;;;22.77;;
60502;SDS011;51448;51.660;5.824;2022-08-19T09:30:12;26.67;;;22.52;;
60502;SDS011;51448;51.660;5.824;2022-08-19T09:32:46;26.17;;;23.33;;
60502;SDS011;51448;51.660;5.824;2022-08-19T09:35:23;28.50;;;25.50;;
60502;SDS011;51448;51.660;5.824;2022-08-19T09:37:56;28.70;;;25.45;;
60502;SDS011;51448;51.660;5.824;2022-08-19T09:40:27;30.53;;;27.30;;
60502;SDS011;51448;51.660;5.824;2022-08-19T09:42:57;29.92;;;26.30;;
60502;SDS011;51448;51.660;5.824;2022-08-19T09:45:39;31.35;;;28.02;;
60502;SDS011;51448;51.660;5.824;2022-08-19T09:48:07;35.28;;;31.58;;
60502;SDS011;51448;51.660;5.824;2022-08-19T09:50:35;34.05;;;30.05;;
60502;SDS011;51448;51.660;5.824;2022-08-19T09:53:18;33.70;;;30.30;;
60502;SDS011;51448;51.660;5.824;2022-08-19T09:55:52;34.72;;;30.25;;
60502;SDS011;51448;51.660;5.824;2022-08-19T09:58:22;32.53;;;29.25;;
60502;SDS011;51448;51.660;5.824;2022-08-19T10:00:54;33.08;;;29.90;;
60502;SDS011;51448;51.660;5.824;2022-08-19T10:03:24;35.00;;;30.98;;
60502;SDS011;51448;51.660;5.824;2022-08-19T10:05:57;34.38;;;30.90;;
60502;SDS011;51448;51.660;5.824;2022-08-19T10:08:29;34.55;;;30.17;;
60502;SDS011;51448;51.660;5.824;2022-08-19T10:11:02;30.55;;;27.30;;
60502;SDS011;51448;51.660;5.824;2022-08-19T10:13:51;33.55;;;29.92;;
60502;SDS011;51448;51.660;5.824;2022-08-19T10:16:20;30.25;;;27.15;;
60502;SDS011;51448;51.660;5.824;2022-08-19T10:18:56;29.75;;;26.55;;
60502;SDS011;51448;51.660;5.824;2022-08-19T10:21:26;29.45;;;23.98;;
60502;SDS011;51448;51.660;5.824;2022-08-19T10:23:59;29.73;;;25.45;;
60502;SDS011;51448;51.660;5.824;2022-08-19T10:26:32;27.75;;;24.77;;
60502;SDS011;51448;51.660;5.824;2022-08-19T10:29:04;28.10;;;25.10;;
60502;SDS011;51448;51.660;5.824;2022-08-19T10:34:24;25.60;;;20.65;;
60502;SDS011;51448;51.660;5.824;2022-08-19T10:36:55;26.92;;;23.02;;
60502;SDS011;51448;51.660;5.824;2022-08-19T10:39:31;27.88;;;24.00;;
60502;SDS011;51448;51.660;5.824;2022-08-19T10:42:09;27.25;;;23.50;;
60502;SDS011;51448;51.660;5.824;2022-08-19T10:44:37;30.65;;;26.30;;
60502;SDS011;51448;51.660;5.824;2022-08-19T10:47:05;28.90;;;24.75;;
60502;SDS011;51448;51.660;5.824;2022-08-19T10:49:50;30.23;;;26.27;;
60502;SDS011;51448;51.660;5.824;2022-08-19T10:52:42;29.02;;;24.88;;
60502;SDS011;51448;51.660;5.824;2022-08-19T10:55:21;25.13;;;22.42;;
60502;SDS011;51448;51.660;5.824;2022-08-19T10:58:10;27.73;;;22.77;;
60502;SDS011;51448;51.660;5.824;2022-08-19T11:00:41;25.92;;;22.77;;
60502;SDS011;51448;51.660;5.824;2022-08-19T11:03:14;26.20;;;23.00;;
60502;SDS011;51448;51.660;5.824;2022-08-19T11:05:41;25.45;;;22.42;;
60502;SDS011;51448;51.660;5.824;2022-08-19T11:08:09;24.52;;;21.48;;
60502;SDS011;51448;51.660;5.824;2022-08-19T11:10:50;23.83;;;20.67;;
60502;SDS011;51448;51.660;5.824;2022-08-19T11:13:23;25.92;;;21.95;;
60502;SDS011;51448;51.660;5.824;2022-08-19T11:15:58;28.73;;;24.08;;
60502;SDS011;51448;51.660;5.824;2022-08-19T11:18:35;26.80;;;23.30;;
60502;SDS011;51448;51.660;5.824;2022-08-19T11:21:14;27.27;;;22.17;;
60502;SDS011;51448;51.660;5.824;2022-08-19T11:23:46;26.58;;;23.38;;
60502;SDS011;51448;51.660;5.824;2022-08-19T11:26:18;27.20;;;24.30;;
60502;SDS011;51448;51.660;5.824;2022-08-19T11:28:49;29.00;;;23.67;;
60502;SDS011;51448;51.660;5.824;2022-08-19T11:31:22;26.35;;;23.52;;
60502;SDS011;51448;51.660;5.824;2022-08-19T11:33:56;24.52;;;21.95;;
60502;SDS011;51448;51.660;5.824;2022-08-19T11:36:26;28.70;;;23.67;;
60502;SDS011;51448;51.660;5.824;2022-08-19T11:38:56;30.88;;;25.20;;
60502;SDS011;51448;51.660;5.824;2022-08-19T11:41:23;27.80;;;23.58;;
60502;SDS011;51448;51.660;5.824;2022-08-19T11:43:52;27.92;;;24.88;;
60502;SDS011;51448;51.660;5.824;2022-08-19T11:46:23;30.08;;;24.52;;
60502;SDS011;51448;51.660;5.824;2022-08-19T11:48:53;29.23;;;25.90;;
60502;SDS011;51448;51.660;5.824;2022-08-19T11:51:22;26.50;;;23.52;;
60502;SDS011;51448;51.660;5.824;2022-08-19T11:53:52;29.42;;;23.25;;
60502;SDS011;51448;51.660;5.824;2022-08-19T11:56:22;28.48;;;22.23;;
60502;SDS011;51448;51.660;5.824;2022-08-19T11:58:53;28.27;;;24.25;;
60502;SDS011;51448;51.660;5.824;2022-08-19T12:01:24;22.08;;;17.65;;
60502;SDS011;51448;51.660;5.824;2022-08-19T12:03:54;23.98;;;21.38;;
60502;SDS011;51448;51.660;5.824;2022-08-19T12:06:25;21.73;;;19.40;;
60502;SDS011;51448;51.660;5.824;2022-08-19T12:08:59;26.02;;;23.25;;
60502;SDS011;51448;51.660;5.824;2022-08-19T12:11:31;24.25;;;21.02;;
60502;SDS011;51448;51.660;5.824;2022-08-19T12:14:00;24.33;;;21.73;;
60502;SDS011;51448;51.660;5.824;2022-08-19T12:16:28;23.33;;;20.23;;
60502;SDS011;51448;51.660;5.824;2022-08-19T12:19:00;23.63;;;20.27;;
60502;SDS011;51448;51.660;5.824;2022-08-19T12:21:33;26.30;;;23.52;;
60502;SDS011;51448;51.660;5.824;2022-08-19T12:24:03;26.17;;;22.27;;
60502;SDS011;51448;51.660;5.824;2022-08-19T12:26:33;26.60;;;23.75;;
60502;SDS011;51448;51.660;5.824;2022-08-19T12:29:19;26.13;;;23.05;;
60502;SDS011;51448;51.660;5.824;2022-08-19T12:31:50;24.05;;;21.45;;
60502;SDS011;51448;51.660;5.824;2022-08-19T12:34:18;24.38;;;21.45;;
60502;SDS011;51448;51.660;5.824;2022-08-19T12:36:47;23.45;;;20.95;;
60502;SDS011;51448;51.660;5.824;2022-08-19T12:39:16;22.20;;;19.92;;
60502;SDS011;51448;51.660;5.824;2022-08-19T12:41:44;25.45;;;21.63;;
60502;SDS011;51448;51.660;5.824;2022-08-19T12:44:21;24.70;;;21.40;;
60502;SDS011;51448;51.660;5.824;2022-08-19T12:46:58;21.17;;;18.83;;
60502;SDS011;51448;51.660;5.824;2022-08-19T12:49:27;21.52;;;18.15;;
60502;SDS011;51448;51.660;5.824;2022-08-19T12:52:16;20.67;;;18.52;;
60502;SDS011;51448;51.660;5.824;2022-08-19T12:54:50;23.02;;;20.55;;
60502;SDS011;51448;51.660;5.824;2022-08-19T12:57:25;24.77;;;21.00;;
60502;SDS011;51448;51.660;5.824;2022-08-19T13:00:02;24.35;;;21.92;;
60502;SDS011;51448;51.660;5.824;2022-08-19T13:02:42;23.52;;;21.02;;
60502;SDS011;51448;51.660;5.824;2022-08-19T13:05:13;26.02;;;22.77;;
60502;SDS011;51448;51.660;5.824;2022-08-19T13:07:54;23.88;;;21.25;;
60502;SDS011;51448;51.660;5.824;2022-08-19T13:10:29;21.95;;;19.35;;
60502;SDS011;51448;51.660;5.824;2022-08-19T13:13:03;21.35;;;18.73;;
60502;SDS011;51448;51.660;5.824;2022-08-19T13:15:34;26.00;;;20.65;;
60502;SDS011;51448;51.660;5.824;2022-08-19T13:18:07;22.75;;;18.98;;
60502;SDS011;51448;51.660;5.824;2022-08-19T13:20:38;23.67;;;19.60;;
60502;SDS011;51448;51.660;5.824;2022-08-19T13:23:18;24.85;;;19.80;;
60502;SDS011;51448;51.660;5.824;2022-08-19T13:25:55;23.77;;;21.15;;
60502;SDS011;51448;51.660;5.824;2022-08-19T13:28:27;22.95;;;20.17;;
60502;SDS011;51448;51.660;5.824;2022-08-19T13:31:16;21.65;;;18.65;;
60502;SDS011;51448;51.660;5.824;2022-08-19T13:34:05;24.35;;;21.23;;
60502;SDS011;51448;51.660;5.824;2022-08-19T13:36:33;21.15;;;17.75;;
60502;SDS011;51448;51.660;5.824;2022-08-19T13:39:03;18.63;;;16.27;;
60502;SDS011;51448;51.660;5.824;2022-08-19T13:41:32;23.88;;;19.48;;
60502;SDS011;51448;51.660;5.824;2022-08-19T13:44:00;20.55;;;17.52;;
60502;SDS011;51448;51.660;5.824;2022-08-19T13:46:29;22.15;;;18.98;;
60502;SDS011;51448;51.660;5.824;2022-08-19T13:48:57;23.48;;;18.02;;
60502;SDS011;51448;51.660;5.824;2022-08-19T13:51:25;23.25;;;20.55;;
60502;SDS011;51448;51.660;5.824;2022-08-19T13:53:52;22.13;;;19.67;;
60502;SDS011;51448;51.660;5.824;2022-08-19T13:56:20;22.98;;;20.55;;
60502;SDS011;51448;51.660;5.824;2022-08-19T13:58:52;23.60;;;18.98;;
60502;SDS011;51448;51.660;5.824;2022-08-19T14:01:21;20.88;;;17.70;;
60502;SDS011;51448;51.660;5.824;2022-08-19T14:03:51;21.75;;;18.95;;
60502;SDS011;51448;51.660;5.824;2022-08-19T14:06:19;22.33;;;19.90;;
60502;SDS011;51448;51.660;5.824;2022-08-19T14:08:48;22.25;;;19.88;;
60502;SDS011;51448;51.660;5.824;2022-08-19T14:11:16;24.80;;;21.95;;
60502;SDS011;51448;51.660;5.824;2022-08-19T14:13:43;27.17;;;24.13;;
60502;SDS011;51448;51.660;5.824;2022-08-19T14:16:12;28.55;;;23.98;;
60502;SDS011;51448;51.660;5.824;2022-08-19T14:18:41;25.63;;;22.85;;
60502;SDS011;51448;51.660;5.824;2022-08-19T14:21:17;28.42;;;24.40;;
60502;SDS011;51448;51.660;5.824;2022-08-19T14:23:50;28.90;;;25.10;;
60502;SDS011;51448;51.660;5.824;2022-08-19T14:26:19;27.25;;;24.45;;
60502;SDS011;51448;51.660;5.824;2022-08-19T14:28:49;28.48;;;25.45;;
60502;SDS011;51448;51.660;5.824;2022-08-19T14:31:17;29.33;;;26.15;;
60502;SDS011;51448;51.660;5.824;2022-08-19T14:33:47;31.73;;;27.10;;
60502;SDS011;51448;51.660;5.824;2022-08-19T14:36:16;28.77;;;25.40;;
60502;SDS011;51448;51.660;5.824;2022-08-19T14:38:45;30.48;;;26.48;;
60502;SDS011;51448;51.660;5.824;2022-08-19T14:41:18;27.00;;;24.10;;
60502;SDS011;51448;51.660;5.824;2022-08-19T14:43:50;23.90;;;20.27;;
60502;SDS011;51448;51.660;5.824;2022-08-19T14:46:24;26.20;;;21.17;;
60502;SDS011;51448;51.660;5.824;2022-08-19T14:48:55;25.65;;;21.27;;
60502;SDS011;51448;51.660;5.824;2022-08-19T14:51:26;26.20;;;21.70;;
60502;SDS011;51448;51.660;5.824;2022-08-19T14:53:54;23.23;;;19.48;;
60502;SDS011;51448;51.660;5.824;2022-08-19T14:56:24;21.63;;;19.33;;
60502;SDS011;51448;51.660;5.824;2022-08-19T14:58:54;21.00;;;17.23;;
60502;SDS011;51448;51.660;5.824;2022-08-19T15:01:22;18.17;;;15.05;;
60502;SDS011;51448;51.660;5.824;2022-08-19T15:03:50;19.95;;;15.57;;
60502;SDS011;51448;51.660;5.824;2022-08-19T15:06:21;20.30;;;16.60;;
60502;SDS011;51448;51.660;5.824;2022-08-19T15:08:51;23.27;;;17.70;;
60502;SDS011;51448;51.660;5.824;2022-08-19T15:11:21;20.73;;;17.85;;
60502;SDS011;51448;51.660;5.824;2022-08-19T15:13:55;20.60;;;17.15;;
60502;SDS011;51448;51.660;5.824;2022-08-19T15:16:24;19.02;;;15.55;;
60502;SDS011;51448;51.660;5.824;2022-08-19T15:18:54;18.27;;;15.25;;